createdAt,value
2023-04-01T00:01:24.300Z,97181.06
2023-04-01T00:03:55.111Z,97176.19
2023-04-01T00:06:24.768Z,97173.53
2023-04-01T00:08:54.134Z,97174.59
2023-04-01T00:11:24.095Z,97169.25
2023-04-01T00:13:52.788Z,97182.13
2023-04-01T00:16:23.187Z,97182.44
2023-04-01T00:18:53.059Z,97176.53
2023-04-01T00:21:23.447Z,97168.75
2023-04-01T00:23:52.838Z,97177.06
2023-04-01T00:26:22.957Z,97179.72
2023-04-01T00:28:52.390Z,97174.13
2023-04-01T00:31:23.142Z,97177.34
2023-04-01T00:33:53.473Z,97175.44
2023-04-01T00:36:24.328Z,97180.00
2023-04-01T00:38:53.856Z,97182.91
2023-04-01T00:41:22.992Z,97170.88
2023-04-01T00:43:54.017Z,97181.03
2023-04-01T00:46:24.135Z,97180.25
2023-04-01T00:48:57.454Z,97177.81
2023-04-01T00:51:31.750Z,97170.38
2023-04-01T00:54:04.776Z,97171.22
2023-04-01T00:56:39.258Z,97175.00
2023-04-01T00:59:13.190Z,97177.38
2023-04-01T01:01:43.475Z,97174.19
2023-04-01T01:04:28.889Z,97177.13
2023-04-01T01:07:14.530Z,97173.94
2023-04-01T01:09:57.496Z,97181.94
2023-04-01T01:12:35.105Z,97182.16
2023-04-01T01:15:18.971Z,97182.44
2023-04-01T01:18:05.083Z,97181.38
2023-04-01T01:21:21.184Z,97176.28
2023-04-01T01:24:27.836Z,97178.44
2023-04-01T01:27:05.724Z,97175.78
2023-04-01T01:30:06.550Z,97175.28
2023-04-01T01:33:06.008Z,97172.63
2023-04-01T01:35:44.669Z,97166.75
2023-04-01T01:38:22.863Z,97168.31
2023-04-01T01:41:04.844Z,97172.34
2023-04-01T01:43:38.908Z,97164.91
2023-04-01T01:46:14.555Z,97165.16
2023-04-01T01:48:46.865Z,97162.72
2023-04-01T01:51:17.843Z,97169.41
2023-04-01T01:53:46.640Z,97168.38
2023-04-01T01:56:18.715Z,97164.63
2023-04-01T01:58:51.635Z,97158.72
2023-04-01T02:01:28.107Z,97164.63
2023-04-01T02:04:01.592Z,97166.00
2023-04-01T02:06:38.719Z,97165.16
2023-04-01T02:09:11.726Z,97166.75
2023-04-01T02:11:48.171Z,97176.91
2023-04-01T02:14:19.959Z,97165.47
2023-04-01T02:16:57.792Z,97168.69
2023-04-01T02:19:34.739Z,97164.94
2023-04-01T02:22:10.888Z,97177.50
2023-04-01T02:24:43.879Z,97182.88
2023-04-01T02:27:15.775Z,97174.31
2023-04-01T02:29:44.615Z,97171.59
2023-04-01T02:32:15.627Z,97170.50
2023-04-01T02:34:45.472Z,97173.47
2023-04-01T02:37:17.343Z,97182.25
2023-04-01T02:39:46.441Z,97173.97
2023-04-01T02:42:16.436Z,97175.63
2023-04-01T02:44:45.528Z,97177.75
2023-04-01T02:47:14.175Z,97183.94
2023-04-01T02:49:42.883Z,97185.50
2023-04-01T02:52:11.589Z,97191.66
2023-04-01T02:54:42.129Z,97184.16
2023-04-01T02:57:11.120Z,97188.72
2023-04-01T02:59:39.896Z,97187.13
2023-04-01T03:02:08.875Z,97195.44
2023-04-01T03:04:37.729Z,97189.53
2023-04-01T03:07:06.542Z,97191.97
2023-04-01T03:09:35.491Z,97189.81
2023-04-01T03:12:05.915Z,97189.00
2023-04-01T03:14:41.670Z,97189.00
2023-04-01T03:17:10.404Z,97192.75
2023-04-01T03:19:39.135Z,97194.88
2023-04-01T03:22:12.847Z,97185.00
2023-04-01T03:24:41.638Z,97192.75
2023-04-01T03:27:11.744Z,97189.28
2023-04-01T03:29:40.854Z,97195.97
2023-04-01T03:32:10.583Z,97182.94
2023-04-01T03:34:39.229Z,97191.47
2023-04-01T03:37:08.161Z,97195.22
2023-04-01T03:39:37.176Z,97193.34
2023-04-01T03:42:07.645Z,97196.81
2023-04-01T03:44:42.185Z,97195.44
2023-04-01T03:47:13.027Z,97200.00
2023-04-01T03:49:41.806Z,97194.13
2023-04-01T03:52:13.199Z,97202.97
2023-04-01T03:54:42.152Z,97213.91
2023-04-01T03:57:11.922Z,97202.66
2023-04-01T03:59:42.224Z,97205.34
2023-04-01T04:02:11.139Z,97212.06
2023-04-01T04:04:40.943Z,97220.88
2023-04-01T04:07:10.605Z,97219.28
2023-04-01T04:09:59.493Z,97216.09
2023-04-01T04:12:28.210Z,97223.81
2023-04-01T04:15:00.144Z,97219.28
2023-04-01T04:17:29.284Z,97226.22
2023-04-01T04:19:59.722Z,97222.75
2023-04-01T04:22:30.035Z,97230.50
2023-04-01T04:24:59.903Z,97231.56
2023-04-01T04:27:31.255Z,97232.66
2023-04-01T04:30:13.913Z,97233.16
2023-04-01T04:32:43.483Z,97237.72
2023-04-01T04:35:14.029Z,97245.47
2023-04-01T04:37:42.897Z,97248.94
2023-04-01T04:40:13.415Z,97245.47
2023-04-01T04:42:43.724Z,97250.28
2023-04-01T04:45:17.400Z,97259.91
2023-04-01T04:47:55.568Z,97256.16
2023-04-01T04:50:26.976Z,97255.91
2023-04-01T04:52:56.744Z,97260.97
2023-04-01T04:55:26.237Z,97256.13
2023-04-01T04:58:15.563Z,97260.94
2023-04-01T05:00:48.604Z,97259.03
2023-04-01T05:03:27.576Z,97261.75
2023-04-01T05:05:56.863Z,97260.13
2023-04-01T05:08:27.444Z,97260.94
2023-04-01T05:10:56.696Z,97273.75
2023-04-01T05:13:26.067Z,97270.00
2023-04-01T05:15:56.822Z,97269.50
2023-04-01T05:18:26.081Z,97274.00
2023-04-01T05:20:57.593Z,97282.84
2023-04-01T05:23:26.690Z,97273.19
2023-04-01T05:25:55.507Z,97274.00
2023-04-01T05:28:24.355Z,97276.38
2023-04-01T05:30:55.545Z,97279.06
2023-04-01T05:33:27.629Z,97278.25
2023-04-01T05:35:56.926Z,97281.19
2023-04-01T05:38:26.157Z,97279.84
2023-04-01T05:41:03.430Z,97283.31
2023-04-01T05:43:34.991Z,97284.91
2023-04-01T05:46:23.975Z,97280.91
2023-04-01T05:49:00.237Z,97277.13
2023-04-01T05:51:30.860Z,97275.25
2023-04-01T05:54:00.140Z,97278.41
2023-04-01T05:56:30.038Z,97274.94
2023-04-01T05:58:59.328Z,97277.91
2023-04-01T06:01:29.842Z,97267.47
2023-04-01T06:03:59.097Z,97283.78
2023-04-01T06:06:32.829Z,97277.63
2023-04-01T06:09:18.877Z,97274.94
2023-04-01T06:12:40.687Z,97267.47
2023-04-01T06:15:28.297Z,97280.28
2023-04-01T06:18:36.276Z,97274.13
2023-04-01T06:21:23.946Z,97280.53
2023-04-01T06:24:33.595Z,97287.72
2023-04-01T06:27:17.502Z,97283.19
2023-04-01T06:30:09.343Z,97285.06
2023-04-01T06:33:17.539Z,97285.56
2023-04-01T06:36:31.590Z,97278.56
2023-04-01T06:39:22.289Z,97287.69
2023-04-01T06:42:32.830Z,97284.16
2023-04-01T06:45:30.993Z,97294.56
2023-04-01T06:48:48.704Z,97294.19
2023-04-01T06:52:11.720Z,97293.38
2023-04-01T06:55:15.017Z,97298.16
2023-04-01T06:58:21.266Z,97295.75
2023-04-01T07:00:56.678Z,97295.22
2023-04-01T07:03:35.207Z,97305.31
2023-04-01T07:06:13.340Z,97304.50
2023-04-01T07:08:56.995Z,97310.09
2023-04-01T07:11:33.161Z,97312.78
2023-04-01T07:14:26.946Z,97316.50
2023-04-01T07:17:08.618Z,97314.38
2023-04-01T07:19:47.642Z,97318.06
2023-04-01T07:22:31.479Z,97328.66
2023-04-01T07:25:40.199Z,97326.50
2023-04-01T07:28:25.570Z,97325.72
2023-04-01T07:31:20.149Z,97329.50
2023-04-01T07:34:05.176Z,97320.38
2023-04-01T07:36:42.351Z,97317.69
2023-04-01T07:39:27.841Z,97322.13
2023-04-01T07:42:28.346Z,97333.47
2023-04-01T07:45:14.295Z,97336.94
2023-04-01T07:48:11.712Z,97333.88
2023-04-01T07:50:53.607Z,97334.22
2023-04-01T07:53:35.294Z,97339.28
2023-04-01T07:56:12.896Z,97337.88
2023-04-01T07:59:10.765Z,97342.94
2023-04-01T08:02:09.427Z,97334.09
2023-04-01T08:04:59.570Z,97346.69
2023-04-01T08:07:40.921Z,97347.88
2023-04-01T08:10:41.840Z,97348.59
2023-04-01T08:13:43.309Z,97349.25
2023-04-01T08:17:04.158Z,97355.69
2023-04-01T08:20:04.166Z,97361.53
2023-04-01T08:22:42.693Z,97363.88
2023-04-01T08:25:39.310Z,97356.38
2023-04-01T08:28:20.382Z,97354.94
2023-04-01T08:30:57.780Z,97356.75
2023-04-01T08:33:31.778Z,97354.81
2023-04-01T08:36:12.648Z,97347.88
2023-04-01T08:38:49.171Z,97352.84
2023-04-01T08:42:06.122Z,97362.19
2023-04-01T08:45:24.132Z,97358.63
2023-04-01T08:48:52.402Z,97359.13
2023-04-01T08:51:52.175Z,97359.19
2023-04-01T08:54:47.342Z,97355.34
2023-04-01T08:57:45.013Z,97362.81
2023-04-01T09:00:40.168Z,97353.56
2023-04-01T09:03:58.983Z,97343.44
2023-04-01T09:06:42.461Z,97360.06
2023-04-01T09:09:59.730Z,97355.72
2023-04-01T09:13:09.291Z,97359.38
2023-04-01T09:16:02.149Z,97351.78
2023-04-01T09:19:17.301Z,97353.56
2023-04-01T09:22:10.175Z,97356.56
2023-04-01T09:25:22.540Z,97359.72
2023-04-01T09:28:04.246Z,97361.78
2023-04-01T09:33:58.844Z,97368.63
2023-04-01T09:37:20.688Z,97362.94
2023-04-01T09:40:21.044Z,97370.66
2023-04-01T09:43:30.627Z,97367.72
2023-04-01T09:46:20.513Z,97370.03
2023-04-01T09:49:46.216Z,97377.09
2023-04-01T09:52:32.595Z,97378.41
2023-04-01T09:56:02.174Z,97365.00
2023-04-01T09:59:30.564Z,97374.69
2023-04-01T10:03:15.639Z,97371.34
2023-04-01T10:06:44.897Z,97381.53
2023-04-01T10:10:25.723Z,97380.16
2023-04-01T10:13:56.105Z,97384.72
2023-04-01T10:17:46.471Z,97391.34
2023-04-01T10:20:49.467Z,97386.13
2023-04-01T10:23:56.727Z,97389.53
2023-04-01T10:27:29.462Z,97390.34
2023-04-01T10:31:10.976Z,97391.34
2023-04-01T10:34:29.605Z,97390.78
2023-04-01T10:37:10.876Z,97386.19
2023-04-01T10:40:38.733Z,97387.41
2023-04-01T10:44:12.305Z,97391.28
2023-04-01T10:47:21.039Z,97390.97
2023-04-01T10:50:37.721Z,97390.59
2023-04-01T10:53:49.829Z,97379.25
2023-04-01T10:56:58.468Z,97388.03
2023-04-01T11:00:43.470Z,97379.50
2023-04-01T11:04:44.769Z,97384.56
2023-04-01T11:08:32.456Z,97394.56
2023-04-01T11:11:52.566Z,97389.78
2023-04-01T11:15:13.183Z,97395.06
2023-04-01T11:18:32.469Z,97395.72
2023-04-01T11:21:50.784Z,97399.00
2023-04-01T11:25:11.718Z,97398.59
2023-04-01T11:28:25.609Z,97391.69
2023-04-01T11:31:24.707Z,97392.00
2023-04-01T11:34:07.121Z,97387.91
2023-04-01T11:36:56.709Z,97388.25
2023-04-01T11:39:39.418Z,97389.41
2023-04-01T11:42:45.039Z,97379.88
2023-04-01T11:45:42.031Z,97381.47
2023-04-01T11:48:40.414Z,97373.75
2023-04-01T11:51:42.719Z,97374.72
2023-04-01T11:54:30.777Z,97373.41
2023-04-01T11:57:38.152Z,97374.78
2023-04-01T12:00:32.673Z,97375.59
2023-04-01T12:03:34.304Z,97380.00
2023-04-01T12:06:16.604Z,97383.78
2023-04-01T12:09:01.536Z,97382.41
2023-04-01T12:11:41.871Z,97379.03
2023-04-01T12:14:21.769Z,97392.00
2023-04-01T12:17:06.288Z,97386.22
2023-04-01T12:19:50.186Z,97384.19
2023-04-01T12:22:46.862Z,97395.34
2023-04-01T12:25:49.827Z,97400.59
2023-04-01T12:28:31.938Z,97393.31
2023-04-01T12:31:21.425Z,97401.44
2023-04-01T12:34:17.623Z,97390.25
2023-04-01T12:37:07.856Z,97390.78
2023-04-01T12:40:04.494Z,97381.75
2023-04-01T12:43:01.903Z,97383.59
2023-04-01T12:45:36.014Z,97386.16
2023-04-01T12:48:56.767Z,97388.41
2023-04-01T12:52:07.495Z,97393.78
2023-04-01T12:55:36.821Z,97389.84
2023-04-01T12:59:01.056Z,97394.38
2023-04-01T13:02:02.137Z,97405.69
2023-04-01T13:05:18.719Z,97400.97
2023-04-01T13:08:23.212Z,97404.13
2023-04-01T13:11:12.155Z,97409.34
2023-04-01T13:14:43.243Z,97401.91
2023-04-01T13:17:23.787Z,97403.56
2023-04-01T13:20:06.187Z,97407.84
2023-04-01T13:22:59.504Z,97405.78
2023-04-01T13:25:40.180Z,97409.00
2023-04-01T13:28:20.372Z,97416.63
2023-04-01T13:31:04.388Z,97415.78
2023-04-01T13:33:47.169Z,97411.00
2023-04-01T13:36:32.786Z,97414.56
2023-04-01T13:39:35.072Z,97416.78
2023-04-01T13:42:26.010Z,97412.44
2023-04-01T13:45:03.684Z,97420.72
2023-04-01T13:48:27.603Z,97423.47
2023-04-01T13:51:31.551Z,97417.75
2023-04-01T13:54:40.440Z,97420.44
2023-04-01T13:57:38.795Z,97420.19
2023-04-01T14:00:53.237Z,97426.31
2023-04-01T14:03:47.036Z,97419.69
2023-04-01T14:06:36.710Z,97425.66
2023-04-01T14:09:42.189Z,97421.09
2023-04-01T14:12:28.287Z,97421.81
2023-04-01T14:15:25.449Z,97421.19
2023-04-01T14:18:26.656Z,97425.44
2023-04-01T14:21:17.327Z,97431.91
2023-04-01T14:24:08.998Z,97438.94
2023-04-01T14:27:40.531Z,97447.19
2023-04-01T14:30:44.030Z,97447.28
2023-04-01T14:33:43.954Z,97457.50
2023-04-01T14:36:49.144Z,97457.94
2023-04-01T14:39:53.783Z,97464.50
2023-04-01T14:43:16.575Z,97469.19
2023-04-01T14:46:38.863Z,97469.06
2023-04-01T14:49:25.746Z,97469.94
2023-04-01T14:52:01.494Z,97468.00
2023-04-01T14:54:40.403Z,97463.81
2023-04-01T14:57:18.065Z,97479.41
2023-04-01T14:59:57.733Z,97464.16
2023-04-01T15:02:51.531Z,97472.47
2023-04-01T15:05:45.990Z,97471.38
2023-04-01T15:08:48.878Z,97472.78
2023-04-01T15:11:45.898Z,97479.34
2023-04-01T15:15:04.105Z,97474.47
2023-04-01T15:17:57.227Z,97477.66
2023-04-01T15:21:01.576Z,97482.47
2023-04-01T15:23:57.269Z,97481.81
2023-04-01T15:26:56.840Z,97486.66
2023-04-01T15:29:51.926Z,97486.00
2023-04-01T15:32:32.353Z,97486.56
2023-04-01T15:35:16.634Z,97492.69
2023-04-01T15:37:57.230Z,97494.88
2023-04-01T15:40:37.984Z,97494.72
2023-04-01T15:43:24.762Z,97501.34
2023-04-01T15:46:17.165Z,97500.44
2023-04-01T15:49:13.636Z,97504.09
2023-04-01T15:52:14.723Z,97501.91
2023-04-01T15:55:21.120Z,97504.78
2023-04-01T15:58:18.768Z,97512.25
2023-04-01T16:00:55.972Z,97509.13
2023-04-01T16:03:43.203Z,97514.81
2023-04-01T16:06:45.503Z,97509.50
2023-04-01T16:09:45.195Z,97512.25
2023-04-01T16:12:22.906Z,97522.72
2023-04-01T16:15:12.219Z,97521.09
2023-04-01T16:18:07.773Z,97525.63
2023-04-01T16:20:52.283Z,97531.44
2023-04-01T16:23:32.218Z,97525.56
2023-04-01T16:26:11.171Z,97532.97
2023-04-01T16:28:54.565Z,97540.19
2023-04-01T16:31:40.511Z,97543.59
2023-04-01T16:34:19.966Z,97543.59
2023-04-01T16:36:54.897Z,97549.56
2023-04-01T16:39:41.818Z,97550.16
2023-04-01T16:42:36.379Z,97555.25
2023-04-01T16:45:27.420Z,97552.53
2023-04-01T16:48:07.824Z,97560.03
2023-04-01T16:50:54.531Z,97564.91
2023-04-01T16:53:42.725Z,97565.19
2023-04-01T16:56:19.059Z,97577.06
2023-04-01T16:59:05.886Z,97570.66
2023-04-01T17:01:47.242Z,97572.31
2023-04-01T17:04:33.126Z,97583.38
2023-04-01T17:07:17.326Z,97590.69
2023-04-01T17:10:09.289Z,97585.91
2023-04-01T17:12:48.668Z,97593.75
2023-04-01T17:15:29.427Z,97598.63
2023-04-01T17:18:09.372Z,97604.84
2023-04-01T17:20:48.751Z,97604.34
2023-04-01T17:23:29.702Z,97605.00
2023-04-01T17:26:19.025Z,97608.28
2023-04-01T17:28:54.990Z,97610.47
2023-04-01T17:31:47.135Z,97611.81
2023-04-01T17:34:41.930Z,97619.13
2023-04-01T17:37:42.329Z,97618.59
2023-04-01T17:40:36.155Z,97621.84
2023-04-01T17:43:20.408Z,97623.47
2023-04-01T17:45:57.381Z,97628.03
2023-04-01T17:48:44.964Z,97632.09
2023-04-01T17:51:36.053Z,97632.94
2023-04-01T17:54:25.877Z,97628.66
2023-04-01T17:57:27.428Z,97637.56
2023-04-01T18:00:05.892Z,97642.94
2023-04-01T18:02:54.307Z,97639.22
2023-04-01T18:05:58.820Z,97647.03
2023-04-01T18:08:50.670Z,97648.16
2023-04-01T18:11:34.301Z,97653.25
2023-04-01T18:14:47.543Z,97659.72
2023-04-01T18:18:08.127Z,97664.28
2023-04-01T18:20:53.022Z,97665.38
2023-04-01T18:23:39.864Z,97666.19
2023-04-01T18:26:15.697Z,97662.97
2023-04-01T18:28:55.067Z,97666.03
2023-04-01T18:31:27.853Z,97673.28
2023-04-01T18:34:08.628Z,97677.56
2023-04-01T18:36:46.925Z,97679.72
2023-04-01T18:39:24.065Z,97687.22
2023-04-01T18:42:12.497Z,97675.72
2023-04-01T18:44:55.225Z,97685.66
2023-04-01T18:47:45.903Z,97699.66
2023-04-01T18:51:02.078Z,97695.91
2023-04-01T18:53:56.265Z,97700.47
2023-04-01T18:56:37.227Z,97710.97
2023-04-01T18:59:18.611Z,97707.75
2023-04-01T19:02:08.729Z,97713.44
2023-04-01T19:05:24.957Z,97715.84
2023-04-01T19:08:37.150Z,97713.16
2023-04-01T19:11:25.237Z,97721.84
2023-04-01T19:14:50.329Z,97721.28
2023-04-01T19:17:51.422Z,97722.69
2023-04-01T19:20:33.161Z,97726.31
2023-04-01T19:24:02.264Z,97725.22
2023-04-01T19:26:40.143Z,97723.28
2023-04-01T19:29:24.803Z,97726.75
2023-04-01T19:32:30.178Z,97733.16
2023-04-01T19:35:22.316Z,97734.78
2023-04-01T19:38:06.646Z,97740.41
2023-04-01T19:40:54.768Z,97742.31
2023-04-01T19:44:57.613Z,97749.88
2023-04-01T19:47:59.874Z,97748.28
2023-04-01T19:53:33.494Z,97757.94
2023-04-01T19:56:14.771Z,97756.84
2023-04-01T19:58:55.950Z,97759.00
2023-04-01T20:01:44.704Z,97760.88
2023-04-01T20:04:23.428Z,97769.75
2023-04-01T20:07:02.378Z,97773.00
2023-04-01T20:10:00.162Z,97779.19
2023-04-01T20:12:49.255Z,97786.16
2023-04-01T20:15:36.543Z,97788.03
2023-04-01T20:18:18.446Z,97797.47
2023-04-01T20:21:01.137Z,97796.09
2023-04-01T20:23:44.055Z,97800.16
2023-04-01T20:26:21.964Z,97805.75
2023-04-01T20:29:17.643Z,97807.38
2023-04-01T20:31:59.954Z,97812.25
2023-04-01T20:34:45.267Z,97813.81
2023-04-01T20:37:34.530Z,97818.66
2023-04-01T20:40:36.427Z,97816.00
2023-04-01T20:43:42.532Z,97814.66
2023-04-01T20:46:22.573Z,97809.56
2023-04-01T20:49:29.281Z,97822.41
2023-04-01T20:52:22.593Z,97819.75
2023-04-01T20:55:32.466Z,97825.09
2023-04-01T20:58:24.877Z,97822.16
2023-04-01T21:01:12.946Z,97829.41
2023-04-01T21:03:54.826Z,97833.69
2023-04-01T21:07:11.710Z,97835.84
2023-04-01T21:10:07.407Z,97832.09
2023-04-01T21:12:51.804Z,97846.03
2023-04-01T21:15:53.299Z,97844.16
2023-04-01T21:19:04.562Z,97846.31
2023-04-01T21:22:02.004Z,97853.78
2023-04-01T21:24:57.931Z,97850.84
2023-04-01T21:27:50.396Z,97858.88
2023-04-01T21:30:48.953Z,97866.66
2023-04-01T21:33:41.719Z,97862.09
2023-04-01T21:36:30.171Z,97867.97
2023-04-01T21:39:24.882Z,97863.16
2023-04-01T21:42:14.047Z,97874.41
2023-04-01T21:45:25.974Z,97876.81
2023-04-01T21:49:11.782Z,97881.38
2023-04-01T21:52:41.375Z,97878.19
2023-04-01T21:56:02.749Z,97880.84
2023-04-01T21:59:13.859Z,97891.56
2023-04-01T22:02:33.760Z,97888.38
2023-04-01T22:05:14.526Z,97891.84
2023-04-01T22:07:58.340Z,97896.91
2023-04-01T22:10:39.053Z,97898.25
2023-04-01T22:13:18.532Z,97903.34
2023-04-01T22:16:04.763Z,97908.69
2023-04-01T22:18:39.040Z,97912.41
2023-04-01T22:21:17.441Z,97909.72
2023-04-01T22:23:53.374Z,97915.03
2023-04-01T22:26:33.816Z,97914.75
2023-04-01T22:29:14.029Z,97914.50
2023-04-01T22:31:57.514Z,97919.56
2023-04-01T22:34:39.562Z,97924.59
2023-04-01T22:37:22.952Z,97926.19
2023-04-01T22:40:23.469Z,97926.94
2023-04-01T22:43:00.290Z,97936.56
2023-04-01T22:46:07.248Z,97942.13
2023-04-01T22:48:45.586Z,97945.06
2023-04-01T22:51:21.653Z,97951.22
2023-04-01T22:54:10.030Z,97946.94
2023-04-01T22:56:45.895Z,97954.38
2023-04-01T22:59:22.135Z,97952.97
2023-04-01T23:01:58.272Z,97954.28
2023-04-01T23:04:34.920Z,97959.19
2023-04-01T23:07:22.576Z,97964.56
2023-04-01T23:09:55.585Z,97970.19
2023-04-01T23:12:27.532Z,97972.41
2023-04-01T23:15:00.470Z,97973.16
2023-04-01T23:17:54.790Z,97974.19
2023-04-01T23:20:34.326Z,97975.69
2023-04-01T23:23:28.607Z,97990.66
2023-04-01T23:26:10.343Z,97998.63
2023-04-01T23:28:48.842Z,98001.47
2023-04-01T23:31:42.802Z,98008.88
2023-04-01T23:34:33.518Z,98003.78
2023-04-01T23:37:08.264Z,98013.19
2023-04-01T23:39:40.621Z,98020.69
2023-04-01T23:42:20.746Z,98020.56
2023-04-01T23:44:52.777Z,98023.38
2023-04-01T23:47:26.585Z,98029.25
2023-04-01T23:49:59.392Z,98032.13
2023-04-01T23:52:32.133Z,98044.94
2023-04-01T23:55:14.122Z,98042.78
2023-04-01T23:57:44.298Z,98052.59
